Time,TemperatureF,DewpointF,PressureIn,WindDirection,WindDirectionDegrees,WindSpeedMPH,WindSpeedGustMPH,Humidity,HourlyPrecipIn,Conditions,Clouds,dailyrainin,SoftwareType,DateUTC
2013-03-08 00:02:00,32.0,24.0,30.43,North,11,0.0,0.0,73,0.00,,,0.00,,2013-03-08 05:02:00,
2013-03-08 00:12:00,32.0,24.0,30.43,North,11,0.0,0.0,73,0.00,,,0.00,,2013-03-08 05:12:00,
2013-03-08 00:22:00,32.0,25.0,30.43,North,11,0.0,0.0,76,0.00,,,0.00,,2013-03-08 05:22:00,
2013-03-08 00:33:00,32.0,25.0,30.43,North,11,0.0,1.0,75,0.00,,,0.00,,2013-03-08 05:33:00,
2013-03-08 00:42:00,32.0,25.0,30.43,North,11,0.0,1.0,75,0.00,,,0.00,,2013-03-08 05:42:00,
2013-03-08 00:52:00,33.0,25.0,30.43,North,11,1.0,2.0,73,0.00,,,0.00,,2013-03-08 05:52:00,
2013-03-08 01:01:00,33.0,27.0,30.44,North,11,0.0,3.0,77,0.00,,,0.00,,2013-03-08 06:01:00,
2013-03-08 01:11:00,33.0,27.0,30.44,North,11,0.0,3.0,77,0.00,,,0.00,,2013-03-08 06:11:00,
2013-03-08 01:22:00,32.0,25.0,30.44,North,11,0.0,2.0,74,0.00,,,0.00,,2013-03-08 06:22:00,
2013-03-08 01:32:00,32.0,25.0,30.44,North,11,0.0,2.0,74,0.00,,,0.00,,2013-03-08 06:32:00,
2013-03-08 01:42:00,32.0,25.0,30.44,North,11,0.0,2.0,74,0.00,,,0.00,,2013-03-08 06:42:00,
2013-03-08 01:52:00,33.0,25.0,30.45,North,11,0.0,3.0,72,0.00,,,0.00,,2013-03-08 06:52:00,
2013-03-08 02:01:00,33.0,25.0,30.45,North,11,0.0,3.0,71,0.00,,,0.00,,2013-03-08 07:01:00,
2013-03-08 02:11:00,33.0,25.0,30.45,North,11,0.0,3.0,71,0.00,,,0.00,,2013-03-08 07:11:00,
2013-03-08 02:22:00,33.0,25.0,30.45,North,11,0.0,2.0,71,0.00,,,0.00,,2013-03-08 07:22:00,
2013-03-08 02:32:00,33.0,24.0,30.46,North,355,1.0,3.0,70,0.00,,,0.00,,2013-03-08 07:32:00,
2013-03-08 02:42:00,33.0,24.0,30.46,North,355,1.0,3.0,70,0.00,,,0.00,,2013-03-08 07:42:00,
2013-03-08 02:52:00,33.0,24.0,30.46,North,350,0.0,3.0,70,0.00,,,0.00,,2013-03-08 07:52:00,
2013-03-08 03:01:00,32.0,25.0,30.46,North,350,1.0,3.0,76,0.00,,,0.00,,2013-03-08 08:01:00,
2013-03-08 03:11:00,32.0,25.0,30.46,North,350,1.0,3.0,76,0.00,,,0.00,,2013-03-08 08:11:00,
2013-03-08 03:22:00,31.0,23.0,30.45,NNW,340,0.0,3.0,72,0.00,,,0.00,,2013-03-08 08:22:00,
2013-03-08 03:32:00,31.0,25.0,30.45,NNW,340,0.0,4.0,78,0.00,,,0.00,,2013-03-08 08:32:00,
2013-03-08 03:42:00,31.0,25.0,30.45,NNW,340,0.0,4.0,78,0.00,,,0.00,,2013-03-08 08:42:00,
2013-03-08 03:52:00,29.0,23.0,30.45,NNW,331,2.0,4.0,79,0.00,,,0.00,,2013-03-08 08:52:00,
2013-03-08 04:03:00,29.0,23.0,30.46,NNW,333,1.0,4.0,77,0.00,,,0.00,,2013-03-08 09:03:00,
2013-03-08 04:11:00,29.0,23.0,30.46,NNW,333,1.0,4.0,77,0.00,,,0.00,,2013-03-08 09:11:00,
2013-03-08 04:22:00,29.0,23.0,30.46,NNW,343,3.0,5.0,77,0.00,,,0.00,,2013-03-08 09:22:00,
2013-03-08 04:32:00,29.0,23.0,30.46,NNW,334,3.0,5.0,77,0.00,,,0.00,,2013-03-08 09:32:00,
2013-03-08 04:42:00,29.0,23.0,30.46,NNW,334,3.0,5.0,77,0.00,,,0.00,,2013-03-08 09:42:00,
2013-03-08 04:52:00,29.0,23.0,30.46,NNW,334,3.0,5.0,77,0.00,,,0.00,,2013-03-08 09:52:00,
2013-03-08 05:01:00,29.0,23.0,30.48,North,350,2.0,4.0,78,0.00,,,0.00,,2013-03-08 10:01:00,
2013-03-08 05:11:00,29.0,23.0,30.48,North,350,2.0,4.0,78,0.00,,,0.00,,2013-03-08 10:11:00,
2013-03-08 05:21:00,29.0,23.0,30.49,North,349,0.0,2.0,78,0.00,,,0.00,,2013-03-08 10:21:00,
2013-03-08 05:32:00,28.0,22.0,30.49,NNW,339,0.0,2.0,79,0.00,,,0.00,,2013-03-08 10:32:00,
2013-03-08 05:42:00,28.0,22.0,30.49,NNW,339,0.0,2.0,79,0.00,,,0.00,,2013-03-08 10:42:00,
2013-03-08 05:52:00,28.0,23.0,30.50,NNW,348,0.0,3.0,81,0.00,,,0.00,,2013-03-08 10:52:00,
2013-03-08 06:01:00,27.0,22.0,30.49,NNW,348,0.0,0.0,82,0.00,,,0.00,,2013-03-08 11:01:00,
2013-03-08 06:11:00,27.0,22.0,30.49,NNW,348,0.0,0.0,82,0.00,,,0.00,,2013-03-08 11:11:00,
2013-03-08 06:22:00,27.0,22.0,30.49,NNW,348,0.0,2.0,81,0.00,,,0.00,,2013-03-08 11:22:00,
2013-03-08 06:32:00,27.0,23.0,30.50,NNW,348,0.0,1.0,83,0.00,,,0.00,,2013-03-08 11:32:00,
2013-03-08 06:42:00,27.0,23.0,30.50,NNW,348,0.0,1.0,83,0.00,,,0.00,,2013-03-08 11:42:00,
2013-03-08 06:52:00,26.0,22.0,30.50,NNW,348,0.0,1.0,85,0.00,,,0.00,,2013-03-08 11:52:00,
2013-03-08 07:02:00,25.0,21.0,30.51,NNW,348,0.0,0.0,85,0.00,,,0.00,,2013-03-08 12:02:00,
2013-03-08 07:11:00,25.0,21.0,30.51,NNW,348,0.0,0.0,85,0.00,,,0.00,,2013-03-08 12:11:00,
2013-03-08 07:22:00,25.0,21.0,30.51,NNW,347,0.0,0.0,85,0.00,,,0.00,,2013-03-08 12:22:00,
2013-03-08 07:32:00,24.0,21.0,30.52,NNW,347,0.0,1.0,87,0.00,,,0.00,,2013-03-08 12:32:00,
2013-03-08 07:43:00,24.0,21.0,30.52,NNW,347,0.0,1.0,87,0.00,,,0.00,,2013-03-08 12:43:00,
2013-03-08 07:53:00,24.0,21.0,30.52,NNW,348,0.0,0.0,88,0.00,,,0.00,,2013-03-08 12:53:00,
2013-03-08 08:01:00,26.0,23.0,30.52,NNW,347,0.0,1.0,88,0.00,,,0.00,,2013-03-08 13:01:00,
2013-03-08 08:11:00,26.0,23.0,30.52,NNW,347,0.0,1.0,88,0.00,,,0.00,,2013-03-08 13:11:00,
2013-03-08 08:22:00,27.0,24.0,30.52,NNW,348,0.0,2.0,88,0.00,,,0.00,,2013-03-08 13:22:00,
2013-03-08 08:32:00,29.0,25.0,30.52,NNW,347,1.0,3.0,86,0.00,,,0.00,,2013-03-08 13:32:00,
2013-03-08 08:42:00,29.0,25.0,30.52,NNW,347,1.0,3.0,86,0.00,,,0.00,,2013-03-08 13:42:00,
2013-03-08 08:52:00,32.0,26.0,30.52,NE,51,1.0,3.0,79,0.00,,,0.00,,2013-03-08 13:52:00,
2013-03-08 09:03:00,35.0,26.0,30.53,NE,42,2.0,7.0,68,0.00,,,0.00,,2013-03-08 14:03:00,
2013-03-08 09:12:00,35.0,26.0,30.53,NE,42,2.0,7.0,68,0.00,,,0.00,,2013-03-08 14:12:00,
2013-03-08 09:22:00,36.0,26.0,30.53,NE,36,3.0,5.0,68,0.00,,,0.00,,2013-03-08 14:22:00,
2013-03-08 09:32:00,37.0,27.0,30.53,NE,44,2.0,6.0,66,0.00,,,0.00,,2013-03-08 14:32:00,
2013-03-08 09:42:00,37.0,27.0,30.53,NE,44,2.0,6.0,66,0.00,,,0.00,,2013-03-08 14:42:00,
2013-03-08 09:53:00,38.0,26.0,30.53,NE,53,3.0,7.0,61,0.00,,,0.00,,2013-03-08 14:53:00,
2013-03-08 10:03:00,38.0,26.0,30.53,North,9,3.0,6.0,61,0.00,,,0.00,,2013-03-08 15:03:00,
2013-03-08 10:12:00,38.0,26.0,30.53,North,9,3.0,6.0,61,0.00,,,0.00,,2013-03-08 15:12:00,
2013-03-08 10:22:00,38.0,25.0,30.53,NE,55,3.0,5.0,59,0.00,,,0.00,,2013-03-08 15:22:00,
2013-03-08 10:32:00,39.0,25.0,30.53,NE,45,3.0,6.0,57,0.00,,,0.00,,2013-03-08 15:32:00,
2013-03-08 10:42:00,39.0,25.0,30.53,NE,45,3.0,6.0,57,0.00,,,0.00,,2013-03-08 15:42:00,
2013-03-08 10:53:00,39.0,25.0,30.53,ENE,70,3.0,7.0,57,0.00,,,0.00,,2013-03-08 15:53:00,
2013-03-08 11:01:00,40.0,27.0,30.53,North,5,3.0,7.0,60,0.00,,,0.00,,2013-03-08 16:01:00,
2013-03-08 11:11:00,40.0,27.0,30.53,North,5,3.0,7.0,60,0.00,,,0.00,,2013-03-08 16:11:00,
2013-03-08 11:22:00,41.0,27.0,30.52,ENE,59,4.0,8.0,58,0.00,,,0.00,,2013-03-08 16:22:00,
2013-03-08 11:32:00,41.0,29.0,30.52,NNE,15,2.0,6.0,61,0.00,,,0.00,,2013-03-08 16:32:00,
2013-03-08 11:42:00,41.0,29.0,30.52,NNE,15,2.0,6.0,61,0.00,,,0.00,,2013-03-08 16:42:00,
2013-03-08 11:52:00,41.0,27.0,30.53,North,360,3.0,8.0,56,0.00,,,0.00,,2013-03-08 16:52:00,
2013-03-08 12:03:00,41.0,25.0,30.52,North,360,1.0,6.0,53,0.00,,,0.00,,2013-03-08 17:03:00,
2013-03-08 12:12:00,41.0,25.0,30.52,North,360,1.0,6.0,53,0.00,,,0.00,,2013-03-08 17:12:00,
2013-03-08 12:22:00,42.0,25.0,30.52,NE,38,4.0,8.0,50,0.00,,,0.00,,2013-03-08 17:22:00,
2013-03-08 12:32:00,41.0,26.0,30.52,East,94,2.0,6.0,54,0.00,,,0.00,,2013-03-08 17:32:00,
2013-03-08 12:42:00,41.0,26.0,30.52,East,94,2.0,6.0,54,0.00,,,0.00,,2013-03-08 17:42:00,
2013-03-08 12:52:00,40.0,25.0,30.52,NW,304,0.0,4.0,54,0.00,,,0.00,,2013-03-08 17:52:00,
2013-03-08 13:02:00,41.0,26.0,30.52,ENE,59,2.0,7.0,55,0.00,,,0.00,,2013-03-08 18:02:00,
2013-03-08 13:11:00,41.0,26.0,30.52,ENE,59,2.0,7.0,55,0.00,,,0.00,,2013-03-08 18:11:00,
2013-03-08 13:22:00,41.0,26.0,30.51,NNE,26,4.0,6.0,54,0.00,,,0.00,,2013-03-08 18:22:00,
2013-03-08 13:32:00,41.0,26.0,30.50,ESE,104,3.0,7.0,55,0.00,,,0.00,,2013-03-08 18:32:00,
2013-03-08 13:42:00,41.0,26.0,30.50,ESE,104,3.0,7.0,55,0.00,,,0.00,,2013-03-08 18:42:00,
2013-03-08 13:52:00,40.0,26.0,30.50,SE,132,2.0,8.0,56,0.00,,,0.00,,2013-03-08 18:52:00,
2013-03-08 14:01:00,41.0,27.0,30.49,East,96,3.0,7.0,57,0.00,,,0.00,,2013-03-08 19:01:00,
2013-03-08 14:11:00,41.0,27.0,30.49,East,96,3.0,7.0,57,0.00,,,0.00,,2013-03-08 19:11:00,
2013-03-08 14:22:00,42.0,27.0,30.48,SE,128,3.0,5.0,55,0.00,,,0.00,,2013-03-08 19:22:00,
2013-03-08 14:32:00,42.0,29.0,30.48,ESE,114,1.0,4.0,59,0.00,,,0.00,,2013-03-08 19:32:00,
2013-03-08 14:42:00,42.0,29.0,30.48,ESE,114,1.0,4.0,59,0.00,,,0.00,,2013-03-08 19:42:00,
2013-03-08 14:52:00,42.0,27.0,30.47,East,82,0.0,3.0,56,0.00,,,0.00,,2013-03-08 19:52:00,
2013-03-08 15:01:00,43.0,29.0,30.47,SE,141,1.0,6.0,57,0.00,,,0.00,,2013-03-08 20:01:00,
2013-03-08 15:11:00,43.0,29.0,30.47,SE,141,1.0,6.0,57,0.00,,,0.00,,2013-03-08 20:11:00,
2013-03-08 15:22:00,42.0,27.0,30.47,ESE,107,3.0,7.0,56,0.00,,,0.00,,2013-03-08 20:22:00,
2013-03-08 15:32:00,43.0,28.0,30.47,ENE,72,3.0,7.0,55,0.00,,,0.00,,2013-03-08 20:32:00,
2013-03-08 15:42:00,43.0,28.0,30.47,ENE,72,3.0,7.0,55,0.00,,,0.00,,2013-03-08 20:42:00,
2013-03-08 15:53:00,42.0,27.0,30.47,NE,49,2.0,4.0,56,0.00,,,0.00,,2013-03-08 20:53:00,
2013-03-08 16:02:00,43.0,27.0,30.47,ESE,123,2.0,7.0,52,0.00,,,0.00,,2013-03-08 21:02:00,
2013-03-08 16:11:00,43.0,27.0,30.47,ESE,123,2.0,7.0,52,0.00,,,0.00,,2013-03-08 21:11:00,
2013-03-08 16:22:00,43.0,26.0,30.46,ESE,120,3.0,7.0,51,0.00,,,0.00,,2013-03-08 21:22:00,
2013-03-08 16:32:00,42.0,27.0,30.46,SE,144,1.0,5.0,56,0.00,,,0.00,,2013-03-08 21:32:00,
2013-03-08 16:42:00,42.0,27.0,30.46,SE,144,1.0,5.0,56,0.00,,,0.00,,2013-03-08 21:42:00,
2013-03-08 16:52:00,43.0,28.0,30.46,East,82,3.0,5.0,55,0.00,,,0.00,,2013-03-08 21:52:00,
2013-03-08 17:01:00,43.0,28.0,30.45,SE,125,1.0,4.0,54,0.00,,,0.00,,2013-03-08 22:01:00,
2013-03-08 17:11:00,43.0,28.0,30.45,SE,125,1.0,4.0,54,0.00,,,0.00,,2013-03-08 22:11:00,
2013-03-08 17:22:00,43.0,28.0,30.45,ESE,118,2.0,6.0,56,0.00,,,0.00,,2013-03-08 22:22:00,
2013-03-08 17:32:00,42.0,27.0,30.45,ENE,65,0.0,2.0,56,0.00,,,0.00,,2013-03-08 22:32:00,
2013-03-08 17:42:00,42.0,27.0,30.45,ENE,65,0.0,2.0,56,0.00,,,0.00,,2013-03-08 22:42:00,
2013-03-08 17:53:00,42.0,28.0,30.45,SSE,155,1.0,5.0,58,0.00,,,0.00,,2013-03-08 22:53:00,
2013-03-08 18:02:00,42.0,28.0,30.45,SSE,148,1.0,4.0,58,0.00,,,0.00,,2013-03-08 23:02:00,
2013-03-08 18:12:00,42.0,28.0,30.45,SSE,148,1.0,4.0,58,0.00,,,0.00,,2013-03-08 23:12:00,
2013-03-08 18:22:00,42.0,29.0,30.44,SE,143,2.0,4.0,60,0.00,,,0.00,,2013-03-08 23:22:00,
2013-03-08 18:32:00,41.0,29.0,30.44,SE,143,0.0,4.0,62,0.00,,,0.00,,2013-03-08 23:32:00,
2013-03-08 18:42:00,41.0,29.0,30.44,SE,143,0.0,4.0,62,0.00,,,0.00,,2013-03-08 23:42:00,
2013-03-08 18:53:00,40.0,29.0,30.44,SSW,196,1.0,4.0,64,0.00,,,0.00,,2013-03-08 23:53:00,
2013-03-08 19:02:00,39.0,28.0,30.45,SSW,196,1.0,4.0,65,0.00,,,0.00,,2013-03-09 00:02:00,
2013-03-08 19:12:00,39.0,28.0,30.45,SSW,196,1.0,4.0,65,0.00,,,0.00,,2013-03-09 00:12:00,
2013-03-08 19:22:00,38.0,28.0,30.45,SSW,196,1.0,3.0,68,0.00,,,0.00,,2013-03-09 00:22:00,
2013-03-08 19:32:00,38.0,29.0,30.44,SSW,196,0.0,2.0,69,0.00,,,0.00,,2013-03-09 00:32:00,
2013-03-08 19:42:00,38.0,29.0,30.44,SSW,196,0.0,2.0,69,0.00,,,0.00,,2013-03-09 00:42:00,
2013-03-08 19:52:00,37.0,29.0,30.45,SSW,196,0.0,2.0,72,0.00,,,0.00,,2013-03-09 00:52:00,
2013-03-08 20:02:00,36.0,29.0,30.46,SSW,196,0.0,1.0,74,0.00,,,0.00,,2013-03-09 01:02:00,
2013-03-08 20:12:00,36.0,29.0,30.46,SSW,196,0.0,1.0,74,0.00,,,0.00,,2013-03-09 01:12:00,
2013-03-08 20:22:00,36.0,29.0,30.46,SSW,196,0.0,1.0,74,0.00,,,0.00,,2013-03-09 01:22:00,
2013-03-08 20:32:00,35.0,28.0,30.46,SSW,196,1.0,2.0,76,0.00,,,0.00,,2013-03-09 01:32:00,
2013-03-08 20:42:00,35.0,28.0,30.46,SSW,196,1.0,2.0,76,0.00,,,0.00,,2013-03-09 01:42:00,
2013-03-08 20:52:00,34.0,27.0,30.46,SSW,196,0.0,2.0,76,0.00,,,0.00,,2013-03-09 01:52:00,
2013-03-08 21:01:00,33.0,27.0,30.46,SSW,196,0.0,1.0,77,0.00,,,0.00,,2013-03-09 02:01:00,
2013-03-08 21:11:00,33.0,27.0,30.46,SSW,196,0.0,1.0,77,0.00,,,0.00,,2013-03-09 02:11:00,
2013-03-08 21:21:00,33.0,27.0,30.46,SSW,196,0.0,0.0,77,0.00,,,0.00,,2013-03-09 02:21:00,
2013-03-08 21:31:00,33.0,27.0,30.46,SSW,196,0.0,0.0,78,0.00,,,0.00,,2013-03-09 02:31:00,
2013-03-08 21:41:00,33.0,27.0,30.46,SSW,196,0.0,0.0,78,0.00,,,0.00,,2013-03-09 02:41:00,
2013-03-08 21:51:00,33.0,27.0,30.46,SSW,196,0.0,0.0,78,0.00,,,0.00,,2013-03-09 02:51:00,
2013-03-08 22:01:00,33.0,27.0,30.46,SSW,196,0.0,0.0,78,0.00,,,0.00,,2013-03-09 03:01:00,
2013-03-08 22:11:00,33.0,27.0,30.46,SSW,196,0.0,0.0,78,0.00,,,0.00,,2013-03-09 03:11:00,
2013-03-08 22:22:00,32.0,27.0,30.47,SSW,196,0.0,1.0,80,0.00,,,0.00,,2013-03-09 03:22:00,
2013-03-08 22:31:00,30.0,25.0,30.47,SSW,196,0.0,1.0,83,0.00,,,0.00,,2013-03-09 03:31:00,
2013-03-08 22:41:00,30.0,25.0,30.47,SSW,196,0.0,1.0,83,0.00,,,0.00,,2013-03-09 03:41:00,
2013-03-08 22:52:00,31.0,26.0,30.47,SSW,196,0.0,0.0,82,0.00,,,0.00,,2013-03-09 03:52:00,
2013-03-08 23:01:00,31.0,26.0,30.45,SSW,196,0.0,0.0,82,0.00,,,0.00,,2013-03-09 04:01:00,
2013-03-08 23:11:00,31.0,26.0,30.45,SSW,196,0.0,0.0,82,0.00,,,0.00,,2013-03-09 04:11:00,
2013-03-08 23:22:00,31.0,26.0,30.44,SSW,196,0.0,1.0,81,0.00,,,0.00,,2013-03-09 04:22:00,
2013-03-08 23:32:00,32.0,27.0,30.44,SSW,196,0.0,0.0,80,0.00,,,0.00,,2013-03-09 04:32:00,
2013-03-08 23:42:00,32.0,27.0,30.44,SSW,196,0.0,0.0,80,0.00,,,0.00,,2013-03-09 04:42:00,
2013-03-08 23:52:00,32.0,27.0,30.44,SSW,196,0.0,0.0,80,0.00,,,0.00,,2013-03-09 04:52:00,